createdAt,value
2019-03-19T00:01:50.644Z,2.40
2019-03-19T00:03:51.811Z,2.40
2019-03-19T00:05:53.029Z,2.40
2019-03-19T00:07:54.198Z,2.40
2019-03-19T00:09:55.334Z,2.40
2019-03-19T00:11:57.918Z,2.40
2019-03-19T00:13:59.358Z,2.50
2019-03-19T00:16:00.762Z,2.50
2019-03-19T00:18:02.266Z,2.50
2019-03-19T00:20:14.251Z,2.60
2019-03-19T00:22:16.888Z,2.60
2019-03-19T00:24:18.285Z,2.60
2019-03-19T00:26:19.435Z,2.60
2019-03-19T00:28:20.846Z,2.50
2019-03-19T00:30:22.040Z,2.50
2019-03-19T00:32:23.421Z,2.40
2019-03-19T00:34:24.746Z,2.40
2019-03-19T00:36:26.246Z,2.40
2019-03-19T00:38:27.448Z,2.40
2019-03-19T00:40:28.841Z,2.40
2019-03-19T00:42:30.224Z,2.30
2019-03-19T00:44:31.738Z,2.30
2019-03-19T00:46:32.880Z,2.30
2019-03-19T00:48:34.026Z,2.40
2019-03-19T00:50:35.194Z,2.40
2019-03-19T00:52:36.334Z,2.40
2019-03-19T00:54:37.503Z,2.40
2019-03-19T00:56:38.644Z,2.40
2019-03-19T00:58:39.789Z,2.30
2019-03-19T01:00:40.934Z,2.40
2019-03-19T01:02:42.457Z,2.40
2019-03-19T01:04:43.601Z,2.40
2019-03-19T01:06:45.056Z,2.40
2019-03-19T01:08:46.464Z,2.40
2019-03-19T01:10:47.849Z,2.40
2019-03-19T01:12:48.991Z,2.30
2019-03-19T01:14:50.245Z,2.30
2019-03-19T01:16:51.437Z,2.30
2019-03-19T01:18:53.100Z,2.30
2019-03-19T01:20:54.486Z,2.30
2019-03-19T01:22:55.866Z,2.30
2019-03-19T01:24:57.261Z,2.30
2019-03-19T01:26:58.861Z,2.40
2019-03-19T01:29:00.010Z,2.40
2019-03-19T01:31:01.260Z,2.40
2019-03-19T01:33:02.489Z,2.40
2019-03-19T01:35:05.604Z,2.40
2019-03-19T01:37:06.820Z,2.40
2019-03-19T01:39:07.990Z,2.40
2019-03-19T01:41:09.133Z,2.40
2019-03-19T01:43:10.278Z,2.40
2019-03-19T01:45:12.506Z,2.40
2019-03-19T01:47:13.754Z,2.40
2019-03-19T01:49:14.902Z,2.40
2019-03-19T01:51:16.038Z,2.40
2019-03-19T01:53:17.509Z,2.40
2019-03-19T01:55:18.660Z,2.40
2019-03-19T01:57:20.081Z,2.40
2019-03-19T01:59:21.494Z,2.40
2019-03-19T02:01:22.637Z,2.40
2019-03-19T02:03:23.782Z,2.40
2019-03-19T02:05:24.926Z,2.40
2019-03-19T02:07:26.065Z,2.30
2019-03-19T02:09:27.320Z,2.30
2019-03-19T02:11:28.454Z,2.30
2019-03-19T02:13:29.690Z,2.30
2019-03-19T02:15:30.840Z,2.40
2019-03-19T02:17:32.082Z,2.50
2019-03-19T02:19:33.486Z,2.40
2019-03-19T02:21:34.874Z,2.40
2019-03-19T02:23:36.016Z,2.40
2019-03-19T02:25:37.414Z,2.30
2019-03-19T02:27:38.927Z,2.20
2019-03-19T02:29:40.507Z,2.30
2019-03-19T02:31:41.613Z,2.20
2019-03-19T02:33:42.753Z,2.20
2019-03-19T02:35:43.903Z,2.30
2019-03-19T02:37:45.063Z,2.20
2019-03-19T02:39:46.582Z,2.20
2019-03-19T02:41:47.798Z,2.20
2019-03-19T02:43:49.192Z,2.20
2019-03-19T02:45:50.414Z,2.20
2019-03-19T02:47:52.054Z,2.20
2019-03-19T02:49:53.207Z,2.20
2019-03-19T02:51:54.454Z,2.20
2019-03-19T02:53:55.598Z,2.20
2019-03-19T02:55:56.759Z,2.20
2019-03-19T02:57:57.903Z,2.10
2019-03-19T02:59:59.053Z,2.20
2019-03-19T03:02:00.291Z,2.10
2019-03-19T03:04:01.787Z,2.20
2019-03-19T03:06:02.933Z,2.20
2019-03-19T03:08:04.078Z,2.20
2019-03-19T03:10:08.134Z,2.20
2019-03-19T03:12:09.271Z,2.20
2019-03-19T03:14:10.406Z,2.20
2019-03-19T03:16:11.553Z,2.20
2019-03-19T03:18:13.142Z,2.30
2019-03-19T03:20:15.298Z,2.30
2019-03-19T03:22:16.434Z,2.20
2019-03-19T03:24:17.889Z,2.30
2019-03-19T03:26:19.342Z,2.20
2019-03-19T03:28:20.535Z,2.20
2019-03-19T03:30:22.465Z,2.20
2019-03-19T03:32:24.001Z,2.20
2019-03-19T03:34:25.599Z,2.20
2019-03-19T03:36:26.920Z,2.20
2019-03-19T03:38:28.192Z,2.20
2019-03-19T03:40:29.346Z,2.20
2019-03-19T03:42:30.490Z,2.20
2019-03-19T03:44:31.623Z,2.20
2019-03-19T03:46:32.770Z,2.10
2019-03-19T03:48:35.546Z,2.10
2019-03-19T03:50:36.698Z,2.10
2019-03-19T03:52:37.846Z,2.10
2019-03-19T03:54:38.983Z,2.10
2019-03-19T03:56:40.148Z,2.10
2019-03-19T03:58:42.638Z,2.10
2019-03-19T04:00:44.099Z,2.10
2019-03-19T04:02:45.336Z,2.10
2019-03-19T04:04:46.514Z,2.10
2019-03-19T04:06:47.973Z,2.10
2019-03-19T04:08:49.197Z,2.00
2019-03-19T04:10:50.780Z,2.00
2019-03-19T04:12:52.201Z,2.00
2019-03-19T04:14:53.431Z,2.00
2019-03-19T04:16:54.576Z,2.00
2019-03-19T04:18:55.713Z,2.00
2019-03-19T04:20:56.962Z,2.00
2019-03-19T04:22:58.103Z,2.00
2019-03-19T04:24:59.659Z,2.00
2019-03-19T04:27:00.847Z,2.00
2019-03-19T04:29:03.862Z,2.00
2019-03-19T04:31:05.033Z,1.90
2019-03-19T04:33:06.583Z,1.90
2019-03-19T04:35:08.217Z,1.90
2019-03-19T04:37:09.666Z,1.90
2019-03-19T04:39:10.810Z,1.90
2019-03-19T04:41:12.236Z,1.90
2019-03-19T04:43:13.430Z,1.90
2019-03-19T04:45:16.809Z,1.90
2019-03-19T04:47:18.338Z,2.00
2019-03-19T04:49:19.474Z,2.00
2019-03-19T04:51:20.630Z,2.00
2019-03-19T04:53:24.149Z,1.90
2019-03-19T04:55:25.654Z,1.80
2019-03-19T04:57:27.371Z,1.80
2019-03-19T04:59:28.541Z,1.90
2019-03-19T05:01:30.122Z,1.90
2019-03-19T05:03:31.333Z,2.10
2019-03-19T05:05:32.478Z,2.10
2019-03-19T05:07:33.676Z,2.10
2019-03-19T05:09:34.847Z,2.10
2019-03-19T05:11:35.993Z,1.90
2019-03-19T05:13:38.499Z,1.90
2019-03-19T05:15:39.639Z,1.90
2019-03-19T05:17:40.791Z,1.90
2019-03-19T05:19:41.927Z,1.90
2019-03-19T05:21:43.343Z,1.80
2019-03-19T05:23:44.484Z,2.00
2019-03-19T05:25:45.801Z,2.00
2019-03-19T05:27:47.031Z,2.00
2019-03-19T05:29:48.488Z,2.10
2019-03-19T05:31:49.746Z,2.20
2019-03-19T05:33:50.892Z,2.40
2019-03-19T05:35:52.274Z,2.60
2019-03-19T05:37:53.789Z,2.70
2019-03-19T05:39:55.013Z,2.80
2019-03-19T05:41:56.166Z,2.80
2019-03-19T05:43:57.301Z,2.80
2019-03-19T05:45:58.441Z,2.80
2019-03-19T05:47:59.897Z,2.70
2019-03-19T05:50:01.192Z,2.70
2019-03-19T05:52:02.514Z,2.60
2019-03-19T05:54:03.650Z,2.70
2019-03-19T05:56:04.849Z,2.70
2019-03-19T05:58:06.162Z,2.70
2019-03-19T06:00:13.314Z,2.60
2019-03-19T06:02:14.470Z,2.40
2019-03-19T06:04:15.646Z,2.10
2019-03-19T06:06:16.813Z,2.00
2019-03-19T06:08:18.365Z,1.90
2019-03-19T06:10:19.501Z,1.90
2019-03-19T06:12:20.682Z,1.90
2019-03-19T06:14:21.870Z,2.00
2019-03-19T06:16:23.030Z,2.10
2019-03-19T06:18:34.331Z,2.20
2019-03-19T06:20:27.217Z,2.20
2019-03-19T06:22:30.633Z,2.30
2019-03-19T06:24:31.765Z,2.30
2019-03-19T06:26:32.921Z,2.40
2019-03-19T06:28:35.644Z,2.50
2019-03-19T06:30:37.013Z,2.50
2019-03-19T06:32:38.269Z,2.60
2019-03-19T06:34:39.724Z,2.50
2019-03-19T06:36:41.281Z,2.40
2019-03-19T06:38:42.618Z,2.40
2019-03-19T06:40:43.905Z,2.30
2019-03-19T06:42:45.409Z,2.20
2019-03-19T06:44:46.545Z,2.20
2019-03-19T06:46:47.776Z,2.20
2019-03-19T06:48:48.913Z,2.10
2019-03-19T06:50:50.062Z,2.20
2019-03-19T06:52:51.546Z,2.20
2019-03-19T06:54:52.696Z,2.20
2019-03-19T06:56:53.853Z,2.30
2019-03-19T06:58:55.001Z,2.30
2019-03-19T07:00:56.482Z,2.40
2019-03-19T07:02:57.637Z,2.40
2019-03-19T07:04:58.803Z,2.50
2019-03-19T07:07:00.021Z,2.50
2019-03-19T07:09:01.266Z,2.60
2019-03-19T07:11:02.406Z,2.60
2019-03-19T07:13:03.564Z,2.80
2019-03-19T07:15:10.911Z,2.90
2019-03-19T07:17:12.062Z,2.90
2019-03-19T07:19:13.197Z,3.00
2019-03-19T07:21:14.337Z,3.00
2019-03-19T07:23:15.484Z,3.00
2019-03-19T07:25:16.636Z,3.10
2019-03-19T07:27:18.034Z,3.20
2019-03-19T07:29:19.273Z,3.20
2019-03-19T07:31:30.363Z,3.30
2019-03-19T07:33:23.522Z,3.30
2019-03-19T07:35:24.810Z,3.40
2019-03-19T07:37:26.078Z,3.50
2019-03-19T07:39:27.462Z,3.60
2019-03-19T07:41:28.734Z,3.60
2019-03-19T07:43:30.145Z,3.60
2019-03-19T07:45:31.290Z,3.70
2019-03-19T07:47:32.693Z,3.80
2019-03-19T07:49:34.118Z,3.80
2019-03-19T07:51:35.257Z,3.90
2019-03-19T07:53:36.405Z,4.00
2019-03-19T07:55:37.554Z,3.90
2019-03-19T07:57:38.744Z,4.00
2019-03-19T07:59:39.953Z,4.10
2019-03-19T08:01:41.097Z,4.20
2019-03-19T08:03:42.250Z,4.30
2019-03-19T08:05:43.389Z,4.40
2019-03-19T08:07:44.952Z,4.40
2019-03-19T08:09:45.962Z,4.50
2019-03-19T08:11:47.108Z,4.70
2019-03-19T08:13:48.565Z,4.70
2019-03-19T08:15:49.705Z,4.80
2019-03-19T08:17:50.852Z,5.00
2019-03-19T08:19:52.036Z,5.00
2019-03-19T08:21:53.168Z,5.10
2019-03-19T08:23:54.321Z,5.20
2019-03-19T08:25:55.813Z,5.30
2019-03-19T08:27:57.258Z,5.30
2019-03-19T08:29:58.402Z,5.30
2019-03-19T08:31:59.590Z,5.50
2019-03-19T08:34:01.086Z,5.40
2019-03-19T08:36:09.394Z,5.50
2019-03-19T08:38:05.393Z,5.50
2019-03-19T08:40:09.850Z,5.70
2019-03-19T08:42:11.037Z,5.80
2019-03-19T08:44:12.193Z,5.90
2019-03-19T08:46:13.340Z,6.00
2019-03-19T08:48:14.741Z,6.10
2019-03-19T08:50:17.993Z,6.10
2019-03-19T08:52:19.213Z,6.10
2019-03-19T08:54:20.370Z,6.20
2019-03-19T08:56:21.594Z,6.40
2019-03-19T08:58:22.741Z,6.30
2019-03-19T09:00:26.300Z,6.40
2019-03-19T09:02:27.693Z,6.50
2019-03-19T09:04:28.861Z,6.60
2019-03-19T09:06:30.392Z,6.70
2019-03-19T09:08:31.608Z,6.70
2019-03-19T09:10:33.080Z,6.80
2019-03-19T09:12:34.525Z,6.90
2019-03-19T09:14:35.941Z,7.10
2019-03-19T09:16:37.085Z,7.30
2019-03-19T09:18:38.653Z,7.50
2019-03-19T09:20:39.798Z,7.60
2019-03-19T09:22:41.048Z,7.70
2019-03-19T09:24:42.196Z,7.90
2019-03-19T09:26:43.630Z,7.80
2019-03-19T09:28:45.112Z,7.90
2019-03-19T09:30:46.265Z,7.80
2019-03-19T09:32:47.409Z,7.60
2019-03-19T09:34:48.594Z,7.50
2019-03-19T09:36:57.267Z,7.30
2019-03-19T09:38:53.035Z,7.60
2019-03-19T09:40:54.176Z,7.50
2019-03-19T09:42:55.667Z,7.70
2019-03-19T09:44:58.674Z,7.80
2019-03-19T09:47:00.254Z,7.70
2019-03-19T09:49:01.813Z,7.50
2019-03-19T09:51:02.937Z,7.50
2019-03-19T09:53:04.172Z,7.50
2019-03-19T09:55:08.537Z,7.50
2019-03-19T09:57:09.719Z,7.40
2019-03-19T09:59:10.866Z,7.50
2019-03-19T10:01:12.089Z,7.60
2019-03-19T10:03:13.710Z,7.80
2019-03-19T10:05:15.121Z,7.80
2019-03-19T10:07:16.261Z,7.80
2019-03-19T10:09:17.705Z,8.10
2019-03-19T10:11:18.831Z,8.10
2019-03-19T10:13:20.006Z,8.00
2019-03-19T10:15:21.564Z,8.10
2019-03-19T10:17:22.697Z,8.00
2019-03-19T10:19:23.862Z,8.00
2019-03-19T10:21:25.023Z,7.90
2019-03-19T10:23:26.489Z,7.90
2019-03-19T10:25:27.645Z,7.90
2019-03-19T10:27:28.833Z,8.20
2019-03-19T10:29:37.931Z,8.40
2019-03-19T10:31:33.089Z,8.70
2019-03-19T10:33:34.246Z,9.20
2019-03-19T10:35:35.637Z,9.30
2019-03-19T10:37:37.061Z,9.20
2019-03-19T10:39:38.230Z,9.30
2019-03-19T10:41:39.369Z,9.00
2019-03-19T10:43:40.853Z,8.50
2019-03-19T10:45:42.306Z,8.60
2019-03-19T10:47:43.495Z,9.00
2019-03-19T10:49:44.668Z,9.30
2019-03-19T10:51:45.875Z,9.40
2019-03-19T10:53:47.026Z,9.30
2019-03-19T10:55:48.188Z,9.10
2019-03-19T10:57:49.333Z,8.70
2019-03-19T10:59:54.293Z,8.30
2019-03-19T11:01:55.723Z,8.30
2019-03-19T11:03:56.972Z,8.60
2019-03-19T11:05:58.114Z,8.60
2019-03-19T11:07:59.257Z,9.20
2019-03-19T11:10:00.405Z,9.20
2019-03-19T11:12:01.546Z,9.30
2019-03-19T11:14:02.694Z,9.00
2019-03-19T11:16:03.839Z,8.70
2019-03-19T11:18:04.990Z,8.80
2019-03-19T11:20:09.554Z,9.00
2019-03-19T11:22:10.951Z,8.90
2019-03-19T11:24:12.092Z,9.40
2019-03-19T11:26:13.590Z,9.80
2019-03-19T11:28:14.734Z,9.70
2019-03-19T11:30:17.908Z,10.00
2019-03-19T11:32:19.273Z,10.00
2019-03-19T11:34:20.810Z,10.00
2019-03-19T11:36:21.947Z,10.10
2019-03-19T11:38:23.093Z,9.60
2019-03-19T11:40:26.019Z,9.50
2019-03-19T11:42:27.496Z,9.50
2019-03-19T11:44:28.833Z,9.40
2019-03-19T11:46:30.041Z,9.40
2019-03-19T11:48:31.808Z,10.10
2019-03-19T11:50:33.703Z,10.40
2019-03-19T11:52:35.009Z,10.80
2019-03-19T11:54:36.505Z,10.80
2019-03-19T11:56:37.654Z,10.50
2019-03-19T11:58:39.059Z,10.40
2019-03-19T12:00:45.861Z,10.50
2019-03-19T12:02:47.029Z,10.10
2019-03-19T12:04:48.457Z,10.30
2019-03-19T12:06:49.634Z,10.70
2019-03-19T12:08:50.649Z,10.80
2019-03-19T12:10:51.682Z,11.10
2019-03-19T12:12:52.831Z,10.90
2019-03-19T12:14:53.981Z,10.10
2019-03-19T12:16:55.117Z,10.70
2019-03-19T12:18:56.425Z,11.10
2019-03-19T12:20:57.665Z,11.60
2019-03-19T12:22:59.113Z,11.80
2019-03-19T12:25:00.410Z,11.70
2019-03-19T12:27:01.703Z,11.50
2019-03-19T12:29:02.849Z,12.00
2019-03-19T12:31:04.147Z,11.80
2019-03-19T12:33:05.343Z,10.90
2019-03-19T12:35:08.615Z,11.00
2019-03-19T12:37:10.260Z,10.70
2019-03-19T12:39:11.422Z,10.80
2019-03-19T12:41:12.660Z,10.40
2019-03-19T12:43:13.888Z,10.40
2019-03-19T12:45:21.923Z,10.60
2019-03-19T12:47:23.337Z,10.90
2019-03-19T12:49:24.561Z,10.60
2019-03-19T12:51:25.720Z,10.70
2019-03-19T12:53:26.858Z,10.60
2019-03-19T12:55:28.056Z,11.00
2019-03-19T12:57:29.197Z,11.30
2019-03-19T12:59:30.354Z,11.40
2019-03-19T13:01:31.591Z,11.50
2019-03-19T13:03:32.897Z,11.50
2019-03-19T13:05:34.046Z,11.50
2019-03-19T13:07:55.496Z,10.90
2019-03-19T13:09:56.863Z,11.20
2019-03-19T13:11:58.416Z,10.80
2019-03-19T13:13:59.640Z,10.10
2019-03-19T13:16:00.806Z,10.70
2019-03-19T13:18:01.947Z,11.10
2019-03-19T13:20:06.495Z,11.40
2019-03-19T13:22:07.550Z,12.00
2019-03-19T13:24:08.562Z,12.50
2019-03-19T13:26:09.869Z,13.10
2019-03-19T13:28:11.011Z,13.50
2019-03-19T13:30:17.685Z,13.70
2019-03-19T13:32:18.826Z,12.80
2019-03-19T13:34:19.970Z,12.00
2019-03-19T13:36:21.530Z,11.30
2019-03-19T13:38:22.669Z,11.10
2019-03-19T13:40:23.822Z,11.10
2019-03-19T13:42:24.977Z,10.30
2019-03-19T13:44:26.126Z,10.10
2019-03-19T13:46:27.269Z,10.80
2019-03-19T13:48:28.413Z,11.10
2019-03-19T13:50:29.575Z,11.00
2019-03-19T13:52:31.044Z,11.40
2019-03-19T13:54:32.485Z,11.70
2019-03-19T13:56:34.036Z,11.80
2019-03-19T13:58:35.177Z,11.50
2019-03-19T14:00:36.333Z,11.20
2019-03-19T14:02:37.549Z,11.20
2019-03-19T14:04:38.685Z,10.90
2019-03-19T14:06:39.837Z,10.50
2019-03-19T14:08:41.277Z,10.70
2019-03-19T14:10:42.501Z,11.00
2019-03-19T14:12:43.718Z,11.20
2019-03-19T14:14:44.853Z,11.20
2019-03-19T14:16:46.005Z,11.50
2019-03-19T14:18:47.145Z,11.60
2019-03-19T14:20:48.305Z,11.60
2019-03-19T14:22:49.571Z,11.80
2019-03-19T14:24:50.971Z,11.90
2019-03-19T14:26:52.155Z,11.80
2019-03-19T14:28:53.509Z,12.00
2019-03-19T14:30:54.768Z,12.10
2019-03-19T14:32:55.905Z,12.20
2019-03-19T14:34:57.289Z,12.20
2019-03-19T14:36:58.470Z,12.30
2019-03-19T14:38:59.642Z,12.40
2019-03-19T14:41:00.805Z,12.50
2019-03-19T14:43:02.092Z,12.60
2019-03-19T14:45:04.338Z,13.50
2019-03-19T14:47:05.613Z,14.30
2019-03-19T14:49:06.690Z,14.80
2019-03-19T14:51:07.826Z,15.20
2019-03-19T14:53:09.061Z,15.70
2019-03-19T14:55:10.302Z,15.20
2019-03-19T14:57:11.348Z,13.60
2019-03-19T14:59:12.790Z,12.50
2019-03-19T15:01:19.274Z,12.10
2019-03-19T15:03:16.993Z,11.20
2019-03-19T15:05:18.165Z,10.90
2019-03-19T15:07:19.598Z,11.00
2019-03-19T15:09:21.135Z,11.50
2019-03-19T15:11:22.674Z,11.70
2019-03-19T15:13:24.122Z,12.50
2019-03-19T15:15:25.278Z,13.60
2019-03-19T15:17:26.431Z,13.70
2019-03-19T15:19:27.606Z,13.80
2019-03-19T15:21:28.867Z,13.00
2019-03-19T15:23:30.021Z,12.30
2019-03-19T15:25:31.153Z,12.10
2019-03-19T15:27:32.308Z,12.00
2019-03-19T15:29:33.457Z,12.20
2019-03-19T15:31:34.603Z,13.10
2019-03-19T15:33:35.737Z,13.70
2019-03-19T15:35:37.027Z,13.80
2019-03-19T15:37:38.181Z,13.70
2019-03-19T15:39:39.427Z,12.90
2019-03-19T15:41:40.655Z,13.60
2019-03-19T15:43:41.799Z,13.90
2019-03-19T15:45:42.942Z,14.00
2019-03-19T15:47:44.493Z,13.70
2019-03-19T15:49:45.633Z,12.90
2019-03-19T15:51:46.891Z,12.90
2019-03-19T15:53:48.335Z,12.80
2019-03-19T15:55:49.586Z,12.50
2019-03-19T15:57:51.028Z,12.70
2019-03-19T15:59:52.253Z,12.90
2019-03-19T16:01:53.397Z,12.90
2019-03-19T16:03:54.618Z,12.50
2019-03-19T16:05:55.764Z,12.70
2019-03-19T16:07:56.920Z,12.70
2019-03-19T16:09:58.065Z,12.50
2019-03-19T16:11:59.498Z,12.10
2019-03-19T16:14:00.645Z,12.10
2019-03-19T16:16:02.191Z,12.10
2019-03-19T16:18:03.473Z,12.10
2019-03-19T16:20:20.040Z,12.20
2019-03-19T16:22:21.270Z,12.30
2019-03-19T16:24:22.507Z,12.30
2019-03-19T16:26:23.746Z,12.40
2019-03-19T16:28:25.226Z,12.50
2019-03-19T16:30:26.536Z,12.60
2019-03-19T16:32:28.112Z,13.00
2019-03-19T16:34:29.254Z,13.30
2019-03-19T16:36:30.687Z,13.60
2019-03-19T16:38:33.589Z,13.70
2019-03-19T16:40:35.009Z,13.90
2019-03-19T16:42:36.165Z,13.90
2019-03-19T16:44:37.306Z,13.80
2019-03-19T16:46:38.447Z,13.10
2019-03-19T16:48:39.592Z,13.10
2019-03-19T16:50:40.735Z,13.00
2019-03-19T16:52:41.892Z,12.90
2019-03-19T16:54:43.290Z,12.70
2019-03-19T16:56:44.744Z,12.60
2019-03-19T16:58:46.190Z,12.40
2019-03-19T17:00:47.381Z,12.30
2019-03-19T17:02:48.529Z,12.20
2019-03-19T17:04:50.017Z,12.20
2019-03-19T17:06:51.161Z,12.00
2019-03-19T17:08:52.415Z,11.90
2019-03-19T17:10:53.650Z,11.80
2019-03-19T17:12:54.818Z,11.70
2019-03-19T17:14:56.331Z,11.60
2019-03-19T17:16:57.484Z,11.50
2019-03-19T17:18:58.741Z,11.40
2019-03-19T17:21:00.165Z,11.30
2019-03-19T17:23:01.314Z,11.20
2019-03-19T17:25:24.249Z,11.20
2019-03-19T17:27:25.494Z,11.10
2019-03-19T17:29:26.651Z,11.00
2019-03-19T17:31:27.807Z,10.90
2019-03-19T17:33:29.154Z,10.90
2019-03-19T17:35:30.633Z,10.80
2019-03-19T17:37:31.869Z,10.70
2019-03-19T17:39:33.048Z,10.60
2019-03-19T17:41:34.191Z,10.60
2019-03-19T17:43:35.345Z,10.50
2019-03-19T17:45:36.581Z,10.40
2019-03-19T17:47:38.015Z,10.20
2019-03-19T17:49:39.165Z,10.00
2019-03-19T17:51:40.309Z,9.80
2019-03-19T17:53:41.463Z,9.60
2019-03-19T17:55:42.653Z,9.30
2019-03-19T17:57:43.809Z,9.00
2019-03-19T17:59:44.994Z,9.00
2019-03-19T18:01:46.195Z,9.10
2019-03-19T18:03:47.487Z,8.90
2019-03-19T18:05:48.903Z,8.50
2019-03-19T18:07:50.109Z,8.60
2019-03-19T18:09:51.391Z,8.50
2019-03-19T18:11:52.585Z,8.50
2019-03-19T18:13:53.819Z,8.60
2019-03-19T18:15:55.050Z,8.60
2019-03-19T18:17:56.418Z,8.50
2019-03-19T18:19:57.925Z,8.40
2019-03-19T18:21:59.437Z,7.90
2019-03-19T18:24:00.594Z,7.40
2019-03-19T18:26:07.745Z,7.50
2019-03-19T18:28:09.433Z,7.30
2019-03-19T18:30:24.276Z,7.40
2019-03-19T18:32:34.668Z,7.30
2019-03-19T18:34:28.906Z,7.30
2019-03-19T18:36:30.344Z,7.20
2019-03-19T18:38:31.586Z,7.20
2019-03-19T18:40:32.820Z,7.10
2019-03-19T18:42:34.059Z,7.40
2019-03-19T18:44:35.283Z,7.60
2019-03-19T18:46:36.718Z,7.70
2019-03-19T18:48:38.001Z,7.80
2019-03-19T18:50:39.365Z,7.80
2019-03-19T18:52:40.784Z,7.80
2019-03-19T18:54:42.133Z,7.70
2019-03-19T18:56:43.685Z,7.70
2019-03-19T18:58:45.243Z,7.60
2019-03-19T19:00:46.445Z,7.60
2019-03-19T19:02:49.986Z,7.50
2019-03-19T19:04:51.210Z,7.60
2019-03-19T19:06:52.353Z,7.50
2019-03-19T19:08:53.532Z,7.50
2019-03-19T19:10:54.857Z,7.40
2019-03-19T19:12:55.994Z,7.30
2019-03-19T19:14:57.156Z,7.30
2019-03-19T19:16:58.718Z,7.30
2019-03-19T19:18:59.835Z,7.20
2019-03-19T19:21:01.034Z,7.20
2019-03-19T19:23:03.067Z,7.10
2019-03-19T19:25:07.863Z,7.10
2019-03-19T19:27:09.282Z,7.00
2019-03-19T19:29:10.944Z,7.00
2019-03-19T19:31:11.961Z,6.90
2019-03-19T19:33:13.163Z,6.90
2019-03-19T19:35:16.655Z,6.90
2019-03-19T19:37:17.886Z,6.80
2019-03-19T19:39:19.041Z,6.80
2019-03-19T19:41:20.534Z,6.70
2019-03-19T19:43:21.982Z,6.60
2019-03-19T19:45:23.432Z,6.60
2019-03-19T19:47:24.841Z,6.50
2019-03-19T19:49:26.322Z,6.40
2019-03-19T19:51:27.596Z,6.40
2019-03-19T19:53:28.826Z,6.40
2019-03-19T19:55:29.990Z,6.40
2019-03-19T19:57:31.131Z,6.40
2019-03-19T19:59:32.279Z,6.40
2019-03-19T20:01:33.444Z,6.30
2019-03-19T20:03:34.965Z,6.30
2019-03-19T20:05:36.177Z,6.20
2019-03-19T20:07:38.568Z,6.10
2019-03-19T20:09:40.329Z,6.10
2019-03-19T20:11:41.514Z,6.00
2019-03-19T20:13:42.698Z,6.00
2019-03-19T20:15:44.002Z,5.90
2019-03-19T20:17:45.329Z,5.90
2019-03-19T20:19:46.542Z,5.90
2019-03-19T20:21:47.682Z,5.80
2019-03-19T20:23:49.177Z,5.80
2019-03-19T20:25:50.409Z,5.80
2019-03-19T20:27:51.869Z,5.80
2019-03-19T20:29:53.096Z,5.70
2019-03-19T20:31:54.332Z,5.60
2019-03-19T20:33:58.538Z,5.60
2019-03-19T20:35:59.693Z,5.60
2019-03-19T20:38:01.162Z,5.50
2019-03-19T20:40:04.713Z,5.50
2019-03-19T20:42:05.860Z,5.40
2019-03-19T20:44:06.998Z,5.50
2019-03-19T20:46:08.226Z,5.40
2019-03-19T20:48:09.702Z,5.40
2019-03-19T20:50:17.667Z,5.30
2019-03-19T20:52:18.810Z,5.20
2019-03-19T20:54:19.953Z,5.20
2019-03-19T20:56:21.123Z,5.20
2019-03-19T20:58:22.289Z,5.20
2019-03-19T21:00:23.738Z,5.20
2019-03-19T21:02:24.874Z,5.20
2019-03-19T21:04:28.952Z,5.20
2019-03-19T21:06:29.369Z,5.20
2019-03-19T21:08:30.618Z,5.10
2019-03-19T21:10:31.779Z,5.10
2019-03-19T21:12:33.047Z,5.00
2019-03-19T21:14:34.182Z,5.00
2019-03-19T21:16:35.350Z,5.00
2019-03-19T21:18:36.566Z,4.90
2019-03-19T21:20:37.737Z,4.90
2019-03-19T21:22:38.881Z,4.90
2019-03-19T21:24:40.032Z,4.80
2019-03-19T21:26:41.208Z,4.80
2019-03-19T21:28:42.438Z,4.80
2019-03-19T21:30:43.675Z,4.70
2019-03-19T21:32:45.131Z,4.70
2019-03-19T21:34:46.293Z,4.70
2019-03-19T21:36:47.437Z,4.70
2019-03-19T21:38:48.587Z,4.60
2019-03-19T21:40:49.846Z,4.60
2019-03-19T21:42:51.117Z,4.50
2019-03-19T21:44:52.257Z,4.40
2019-03-19T21:46:53.409Z,4.30
2019-03-19T21:48:54.562Z,4.40
2019-03-19T21:50:55.704Z,4.40
2019-03-19T21:52:57.246Z,4.40
2019-03-19T21:54:58.689Z,4.40
2019-03-19T21:57:00.084Z,4.30
2019-03-19T21:59:01.586Z,4.30
2019-03-19T22:01:02.733Z,4.30
2019-03-19T22:03:03.875Z,4.30
2019-03-19T22:05:06.214Z,4.20
2019-03-19T22:07:07.365Z,4.20
2019-03-19T22:09:08.814Z,4.20
2019-03-19T22:11:09.966Z,4.20
2019-03-19T22:13:11.119Z,4.10
2019-03-19T22:15:16.083Z,4.00
2019-03-19T22:17:17.237Z,4.10
2019-03-19T22:19:18.808Z,3.90
2019-03-19T22:21:19.961Z,4.00
2019-03-19T22:23:21.099Z,4.00
2019-03-19T22:25:22.256Z,4.00
2019-03-19T22:27:23.416Z,4.00
2019-03-19T22:29:24.557Z,3.90
2019-03-19T22:31:25.712Z,3.90
2019-03-19T22:33:27.201Z,3.80
2019-03-19T22:35:28.373Z,3.80
2019-03-19T22:37:29.582Z,3.80
2019-03-19T22:39:30.718Z,3.90
2019-03-19T22:41:31.871Z,3.80
2019-03-19T22:43:33.085Z,3.80
2019-03-19T22:45:34.230Z,3.80
2019-03-19T22:47:35.689Z,3.80
2019-03-19T22:49:36.906Z,3.80
2019-03-19T22:51:38.069Z,3.70
2019-03-19T22:53:39.519Z,3.70
2019-03-19T22:55:40.961Z,3.60
2019-03-19T22:57:42.698Z,3.50
2019-03-19T22:59:43.835Z,3.40
2019-03-19T23:01:45.402Z,3.40
2019-03-19T23:03:46.566Z,3.40
2019-03-19T23:05:47.790Z,3.20
2019-03-19T23:07:48.949Z,3.20
2019-03-19T23:09:50.520Z,3.10
2019-03-19T23:11:51.673Z,3.30
2019-03-19T23:13:52.803Z,3.10
2019-03-19T23:15:53.982Z,3.00
2019-03-19T23:17:55.218Z,3.10
2019-03-19T23:19:57.493Z,3.20
2019-03-19T23:21:58.726Z,3.30
2019-03-19T23:24:00.189Z,3.30
2019-03-19T23:26:01.331Z,3.20
2019-03-19T23:28:02.681Z,3.10
2019-03-19T23:30:07.882Z,3.30
2019-03-19T23:32:09.041Z,3.30
2019-03-19T23:34:10.177Z,3.30
2019-03-19T23:36:11.327Z,3.20
2019-03-19T23:38:12.777Z,3.30
2019-03-19T23:40:16.423Z,3.30
2019-03-19T23:42:17.579Z,3.20
2019-03-19T23:44:18.727Z,3.10
2019-03-19T23:46:19.898Z,3.10
2019-03-19T23:48:21.053Z,3.10
2019-03-19T23:50:22.508Z,3.10
2019-03-19T23:52:24.038Z,3.00
2019-03-19T23:54:25.482Z,3.00
2019-03-19T23:56:26.637Z,3.00
2019-03-19T23:58:27.858Z,2.90
